Time;durP1;ratioP1;P1;durP2;ratioP2;P2;SDS_P1;SDS_P2;PMS_P1;PMS_P2;Temp;Humidity;BMP_temperature;BMP_pressure;BME280_temperature;BME280_humidity;BME280_pressure;Samples;Min_cycle;Max_cycle;Signal;HPM_P1;HPM_P2
2022/03/07 00:01:49;;;;;;;8.85;3.83;;;0.20;99.90;;;;;;5028415;28;20068;-61
2022/03/07 00:04:17;;;;;;;15.63;4.47;;;0.10;99.90;;;;;;5027396;28;20064;-61
2022/03/07 00:06:46;;;;;;;15.27;3.58;;;0.10;99.90;;;;;;5029208;28;20116;-62
2022/03/07 00:09:14;;;;;;;8.48;3.40;;;0.00;99.90;;;;;;5029128;28;20053;-62
2022/03/07 00:11:43;;;;;;;15.50;3.90;;;0.00;99.90;;;;;;5028712;28;20053;-60
2022/03/07 00:14:12;;;;;;;13.70;3.70;;;0.00;99.90;;;;;;5027920;28;20053;-62
2022/03/07 00:16:44;;;;;;;10.40;2.92;;;0.00;99.90;;;;;;5029052;28;20045;-61
2022/03/07 00:19:13;;;;;;;9.98;3.00;;;-0.10;99.90;;;;;;5028512;28;20060;-61
2022/03/07 00:21:41;;;;;;;15.93;3.70;;;-0.10;99.90;;;;;;5013803;28;20037;-63
2022/03/07 00:24:09;;;;;;;16.75;3.72;;;-0.20;99.90;;;;;;5028811;28;20481;-61
2022/03/07 00:26:37;;;;;;;15.70;4.50;;;-0.20;99.90;;;;;;5028887;28;20401;-63
2022/03/07 00:29:05;;;;;;;12.57;3.78;;;-0.20;99.90;;;;;;5028620;28;20068;-62
2022/03/07 00:31:36;;;;;;;12.30;3.42;;;-0.20;99.90;;;;;;5028461;28;20049;-62
2022/03/07 00:34:14;;;;;;;11.82;4.20;;;-0.20;99.90;;;;;;5011006;28;20045;-63
2022/03/07 00:36:42;;;;;;;10.82;3.95;;;-0.30;99.90;;;;;;5029394;28;20042;-63
2022/03/07 00:39:10;;;;;;;15.45;3.60;;;-0.20;99.90;;;;;;5031799;28;20041;-62
2022/03/07 00:41:38;;;;;;;9.73;3.45;;;-0.30;99.90;;;;;;5028665;28;20492;-60
2022/03/07 00:44:08;;;;;;;11.80;3.63;;;-0.30;99.90;;;;;;5019078;28;20377;-61
2022/03/07 00:46:38;;;;;;;16.63;4.55;;;-0.30;99.90;;;;;;5015987;28;20049;-62
2022/03/07 00:49:08;;;;;;;10.25;3.83;;;-0.30;99.90;;;;;;4998238;28;20540;-62
2022/03/07 00:51:36;;;;;;;15.60;4.13;;;-0.40;99.90;;;;;;5018137;28;20033;-62
2022/03/07 00:54:05;;;;;;;14.75;4.25;;;-0.40;99.90;;;;;;5027932;28;20049;-62
2022/03/07 00:56:33;;;;;;;15.47;4.50;;;-0.40;99.90;;;;;;5011854;28;20517;-63
2022/03/07 00:59:01;;;;;;;14.15;4.38;;;-0.40;99.90;;;;;;5001546;28;20052;-62
2022/03/07 01:01:30;;;;;;;16.67;4.82;;;-0.50;99.90;;;;;;5025785;28;20052;-62
2022/03/07 01:03:58;;;;;;;17.50;4.65;;;-0.50;99.90;;;;;;5023930;28;20513;-62
2022/03/07 01:06:26;;;;;;;17.67;4.40;;;-0.50;99.90;;;;;;5019708;28;20041;-63
2022/03/07 01:08:54;;;;;;;15.02;4.25;;;-0.50;99.90;;;;;;5028536;28;20052;-63
2022/03/07 01:11:21;;;;;;;10.70;3.63;;;-0.60;99.90;;;;;;4996643;28;20057;-62
2022/03/07 01:13:49;;;;;;;11.45;3.63;;;-0.60;99.90;;;;;;5027299;28;20045;-62
2022/03/07 01:16:17;;;;;;;9.85;3.75;;;-0.60;99.90;;;;;;5028478;28;20048;-62
2022/03/07 01:18:45;;;;;;;18.50;4.78;;;-0.60;99.90;;;;;;5002499;28;20405;-63
2022/03/07 01:21:13;;;;;;;11.60;3.42;;;-0.70;99.90;;;;;;5004102;28;20056;-61
2022/03/07 01:23:42;;;;;;;9.67;3.47;;;-0.70;99.90;;;;;;5017419;28;20037;-63
2022/03/07 01:26:16;;;;;;;9.30;3.85;;;-0.70;99.90;;;;;;5027679;28;20053;-64
2022/03/07 01:28:44;;;;;;;11.60;3.70;;;-0.70;99.90;;;;;;5008705;28;20054;-61
2022/03/07 01:31:12;;;;;;;9.32;3.28;;;-0.70;99.90;;;;;;5007771;28;20049;-62
2022/03/07 01:33:40;;;;;;;16.17;3.47;;;-0.70;99.90;;;;;;5005002;28;20053;-63
2022/03/07 01:36:07;;;;;;;6.13;2.75;;;-0.70;99.90;;;;;;5008305;28;20050;-62
2022/03/07 01:38:36;;;;;;;15.98;3.95;;;-0.70;99.90;;;;;;5006794;28;20046;-62
2022/03/07 01:41:04;;;;;;;12.48;2.78;;;-0.80;99.90;;;;;;5008141;28;20057;-60
2022/03/07 01:43:32;;;;;;;9.48;3.28;;;-0.80;99.90;;;;;;5006605;28;20046;-61
2022/03/07 01:46:01;;;;;;;10.35;2.90;;;-0.80;99.90;;;;;;5007709;28;20531;-61
2022/03/07 01:48:32;;;;;;;10.05;2.45;;;-0.80;99.90;;;;;;5003991;28;20046;-60
2022/03/07 01:51:01;;;;;;;12.05;3.13;;;-0.90;99.90;;;;;;5000982;28;20057;-61
2022/03/07 01:53:30;;;;;;;12.15;3.15;;;-0.80;99.90;;;;;;5006869;28;20057;-60
2022/03/07 01:55:59;;;;;;;8.98;2.63;;;-0.80;99.90;;;;;;4990535;28;20053;-60
2022/03/07 01:58:32;;;;;;;12.88;3.45;;;-0.90;99.90;;;;;;5006387;28;20049;-61
2022/03/07 02:01:00;;;;;;;8.98;3.05;;;-0.90;99.90;;;;;;5006222;28;20042;-61
2022/03/07 02:03:34;;;;;;;14.80;3.13;;;-0.90;99.90;;;;;;4991635;28;20065;-61
2022/03/07 02:06:03;;;;;;;13.88;3.10;;;-0.90;99.90;;;;;;5006646;28;20050;-61
2022/03/07 02:08:33;;;;;;;7.55;3.00;;;-1.00;99.90;;;;;;4999626;28;20054;-61
2022/03/07 02:11:09;;;;;;;7.43;2.60;;;-1.00;99.90;;;;;;5006351;28;20060;-61
2022/03/07 02:13:37;;;;;;;12.77;3.38;;;-1.00;99.90;;;;;;5006142;28;20038;-63
2022/03/07 02:16:07;;;;;;;;;;;-1.10;99.90;;;;;;5006894;28;20046;-62
2022/03/07 02:18:37;;;;;;;10.38;3.20;;;-1.10;99.90;;;;;;5002395;28;19921;-62
2022/03/07 02:21:16;;;;;;;8.73;3.45;;;-1.10;99.90;;;;;;5002845;28;20395;-60
2022/03/07 02:24:05;;;;;;;12.93;3.60;;;-1.10;99.90;;;;;;5006126;28;20053;-62
2022/03/07 02:26:34;;;;;;;13.32;3.95;;;-1.10;99.90;;;;;;4991313;28;20037;-62
2022/03/07 02:29:03;;;;;;;12.60;3.25;;;-1.10;99.90;;;;;;5019331;28;20053;-64
2022/03/07 02:31:34;;;;;;;10.02;3.10;;;-1.20;99.90;;;;;;5002257;28;20034;-62
2022/03/07 02:34:07;;;;;;;9.88;2.58;;;-1.20;99.90;;;;;;5028071;28;20397;-63
2022/03/07 02:36:36;;;;;;;6.55;3.20;;;-1.20;99.90;;;;;;5023802;28;20078;-62
2022/03/07 02:39:05;;;;;;;5.80;3.03;;;-1.20;99.90;;;;;;5034382;28;20481;-63
2022/03/07 02:41:35;;;;;;;11.45;3.50;;;-1.10;99.90;;;;;;5017245;28;20512;-63
2022/03/07 02:44:04;;;;;;;14.00;3.53;;;-1.10;99.90;;;;;;5016562;28;20049;-61
2022/03/07 02:46:32;;;;;;;31.63;4.07;;;-1.10;99.90;;;;;;5014063;28;20520;-63
2022/03/07 02:49:00;;;;;;;7.30;3.00;;;-1.00;99.90;;;;;;5015661;28;20061;-63
2022/03/07 02:51:28;;;;;;;7.18;2.67;;;-1.10;99.90;;;;;;5016125;28;20049;-63
2022/03/07 02:53:58;;;;;;;8.27;2.90;;;-1.10;99.90;;;;;;5016746;28;20608;-61
2022/03/07 02:56:25;;;;;;;8.75;2.85;;;-1.10;99.90;;;;;;5035295;28;20050;-63
2022/03/07 02:58:53;;;;;;;7.20;2.72;;;-1.10;99.90;;;;;;5038402;28;20056;-64
2022/03/07 03:01:21;;;;;;;13.13;2.60;;;-1.10;99.90;;;;;;5044993;28;20050;-63
2022/03/07 03:03:49;;;;;;;9.38;3.35;;;-1.10;99.90;;;;;;5036179;28;20037;-62
2022/03/07 03:06:17;;;;;;;12.50;3.30;;;-1.10;99.90;;;;;;5032775;28;20064;-61
2022/03/07 03:08:45;;;;;;;10.10;2.65;;;-1.00;99.90;;;;;;5033538;28;20504;-62
2022/03/07 03:11:12;;;;;;;11.18;2.63;;;-1.00;99.90;;;;;;5046676;28;20045;-64
2022/03/07 03:13:40;;;;;;;8.30;2.50;;;-1.00;99.90;;;;;;5049209;28;20048;-63
2022/03/07 03:16:08;;;;;;;10.15;3.10;;;-0.90;99.90;;;;;;5042276;28;20048;-64
2022/03/07 03:18:36;;;;;;;10.02;3.05;;;-0.90;99.90;;;;;;5035836;28;20045;-59
2022/03/07 03:21:04;;;;;;;11.65;3.15;;;-0.80;99.90;;;;;;5018997;28;20041;-61
2022/03/07 03:23:32;;;;;;;6.68;2.65;;;-0.80;99.90;;;;;;5036522;28;20500;-61
2022/03/07 03:25:59;;;;;;;13.30;2.92;;;-0.70;99.90;;;;;;5053294;28;20048;-60
2022/03/07 03:28:27;;;;;;;10.65;2.92;;;-0.60;99.90;;;;;;5047248;28;20050;-61
2022/03/07 03:30:59;;;;;;;7.13;2.43;;;-0.60;99.90;;;;;;5033294;28;20049;-60
2022/03/07 03:33:27;;;;;;;7.05;2.42;;;-0.50;99.90;;;;;;5036139;28;20291;-62
2022/03/07 03:35:57;;;;;;;5.80;2.72;;;-0.50;99.90;;;;;;5033444;28;20489;-61
2022/03/07 03:38:24;;;;;;;11.75;3.63;;;-0.40;99.90;;;;;;5033173;28;20376;-62
2022/03/07 03:40:52;;;;;;;16.52;3.05;;;-0.40;99.90;;;;;;5032454;28;20056;-62
2022/03/07 03:43:21;;;;;;;13.55;2.75;;;-0.40;99.90;;;;;;5043710;28;20064;-62
2022/03/07 03:45:49;;;;;;;12.60;3.05;;;-0.30;99.90;;;;;;5032845;28;20042;-60
2022/03/07 03:48:17;;;;;;;8.52;3.10;;;-0.30;99.90;;;;;;5017254;28;20053;-62
2022/03/07 03:50:44;;;;;;;8.70;2.78;;;-0.30;99.90;;;;;;5017208;28;20045;-63
2022/03/07 03:53:12;;;;;;;13.68;2.90;;;-0.30;99.90;;;;;;5019421;28;20064;-61
2022/03/07 03:55:40;;;;;;;11.38;3.58;;;-0.20;99.90;;;;;;5021280;28;20428;-62
2022/03/07 03:58:08;;;;;;;8.40;3.15;;;-0.10;99.90;;;;;;5006857;28;20045;-63
2022/03/07 04:00:35;;;;;;;15.10;3.08;;;-0.10;99.90;;;;;;5023518;28;20052;-62
2022/03/07 04:03:06;;;;;;;10.75;3.35;;;-0.10;99.90;;;;;;5011607;28;20052;-63
2022/03/07 04:05:37;;;;;;;19.05;3.50;;;0.00;99.90;;;;;;5031135;28;20041;-63
2022/03/07 04:08:05;;;;;;;11.07;3.00;;;0.00;99.90;;;;;;5032876;28;20048;-64
2022/03/07 04:10:33;;;;;;;19.95;3.05;;;0.10;99.90;;;;;;5031009;28;20054;-62
2022/03/07 04:13:01;;;;;;;8.23;3.00;;;0.10;99.90;;;;;;5031676;28;20046;-63
2022/03/07 04:15:32;;;;;;;11.50;2.53;;;0.20;99.90;;;;;;5032192;28;20060;-63
2022/03/07 04:18:00;;;;;;;9.57;3.60;;;0.20;99.90;;;;;;5032315;28;20069;-64
2022/03/07 04:20:27;;;;;;;10.95;3.13;;;0.30;99.90;;;;;;5031683;28;20042;-62
2022/03/07 04:22:55;;;;;;;14.18;3.55;;;0.30;99.90;;;;;;5031749;28;20041;-62
2022/03/07 04:25:26;;;;;;;11.38;2.72;;;0.40;99.90;;;;;;5018968;28;20045;-62
2022/03/07 04:27:57;;;;;;;13.32;3.88;;;0.40;99.90;;;;;;5014688;28;20049;-63
2022/03/07 04:30:25;;;;;;;10.45;3.13;;;0.40;99.90;;;;;;5030803;28;20385;-61
2022/03/07 04:32:52;;;;;;;10.38;3.30;;;0.40;99.90;;;;;;5032218;28;20045;-60
2022/03/07 04:35:20;;;;;;;7.65;2.83;;;0.50;99.90;;;;;;5031806;28;20052;-61
2022/03/07 04:37:53;;;;;;;9.55;2.47;;;0.50;99.90;;;;;;5031641;28;20048;-61
2022/03/07 04:40:21;;;;;;;10.65;2.50;;;0.60;99.90;;;;;;5031532;28;20042;-61
2022/03/07 04:42:49;;;;;;;9.23;2.88;;;0.60;99.90;;;;;;5031565;28;20046;-61
2022/03/07 04:45:16;;;;;;;11.55;3.15;;;0.60;99.90;;;;;;5031405;28;20041;-61
2022/03/07 04:47:44;;;;;;;14.13;3.58;;;0.70;99.90;;;;;;5022077;28;20053;-62
2022/03/07 04:50:13;;;;;;;8.68;3.00;;;0.70;99.90;;;;;;5017710;28;20061;-60
2022/03/07 04:52:42;;;;;;;12.98;3.17;;;0.70;99.90;;;;;;5014581;28;20053;-60
2022/03/07 04:55:11;;;;;;;12.35;3.75;;;0.70;99.90;;;;;;5031664;28;20045;-62
2022/03/07 04:57:40;;;;;;;22.67;4.35;;;0.70;99.90;;;;;;5030728;28;20033;-61
2022/03/07 05:00:10;;;;;;;11.27;2.90;;;0.70;99.90;;;;;;5030990;28;20052;-64
2022/03/07 05:02:37;;;;;;;13.45;2.97;;;0.80;99.90;;;;;;5030446;28;20481;-62
2022/03/07 05:05:05;;;;;;;8.95;2.90;;;0.80;99.90;;;;;;5031486;28;20129;-61
2022/03/07 05:07:33;;;;;;;10.20;3.08;;;0.80;99.90;;;;;;5031760;28;20481;-60
2022/03/07 05:10:01;;;;;;;14.00;3.35;;;0.80;99.90;;;;;;5030584;28;20430;-62
2022/03/07 05:12:29;;;;;;;10.20;3.38;;;0.90;99.90;;;;;;5025423;28;20048;-61
2022/03/07 05:14:57;;;;;;;11.95;3.58;;;0.90;99.90;;;;;;5031015;28;20041;-61
2022/03/07 05:17:25;;;;;;;8.27;2.67;;;0.90;99.90;;;;;;5026860;28;20169;-61
2022/03/07 05:19:53;;;;;;;9.50;3.08;;;0.90;99.90;;;;;;5027412;28;20477;-61
2022/03/07 05:22:21;;;;;;;9.73;2.88;;;1.00;99.90;;;;;;5019413;28;20053;-63
2022/03/07 05:24:49;;;;;;;8.40;3.20;;;1.00;99.90;;;;;;5027868;28;20046;-62
2022/03/07 05:27:17;;;;;;;10.30;3.40;;;1.00;99.90;;;;;;5030682;28;20608;-63
2022/03/07 05:29:44;;;;;;;14.98;3.38;;;1.00;99.90;;;;;;5030853;28;20049;-64
2022/03/07 05:32:12;;;;;;;12.98;3.33;;;1.00;99.90;;;;;;5017962;28;20053;-62
2022/03/07 05:34:42;;;;;;;11.18;2.75;;;1.10;99.90;;;;;;5028192;28;20042;-64
2022/03/07 05:37:10;;;;;;;8.15;2.63;;;1.10;99.90;;;;;;5028255;28;20041;-64
2022/03/07 05:39:37;;;;;;;13.80;5.82;;;1.10;99.90;;;;;;5030880;28;20045;-64
2022/03/07 05:42:05;;;;;;;16.88;4.60;;;1.10;99.90;;;;;;5030784;28;20485;-63
2022/03/07 05:44:33;;;;;;;14.95;3.47;;;1.10;99.90;;;;;;5031031;28;20080;-64
2022/03/07 05:47:01;;;;;;;9.85;3.90;;;1.10;99.90;;;;;;5030440;28;20045;-63
2022/03/07 05:49:29;;;;;;;12.52;3.47;;;1.10;99.90;;;;;;5025806;28;20400;-64
2022/03/07 05:51:57;;;;;;;18.52;3.70;;;1.20;99.90;;;;;;5030927;28;20038;-65
2022/03/07 05:54:24;;;;;;;13.10;2.90;;;1.20;99.90;;;;;;5030641;28;20045;-61
2022/03/07 05:56:52;;;;;;;10.30;3.20;;;1.20;99.90;;;;;;5019227;28;20049;-61
2022/03/07 05:59:20;;;;;;;13.82;3.25;;;1.20;99.90;;;;;;5030857;28;20392;-61
2022/03/07 06:01:47;;;;;;;10.10;3.20;;;1.30;99.90;;;;;;5009542;28;20064;-61
2022/03/07 06:04:18;;;;;;;11.70;4.00;;;1.30;99.90;;;;;;5019769;28;20042;-61
2022/03/07 06:06:46;;;;;;;10.75;4.40;;;1.20;99.90;;;;;;5024125;28;20512;-61
2022/03/07 06:09:14;;;;;;;10.77;3.03;;;1.20;99.90;;;;;;5025103;28;20045;-61
2022/03/07 06:11:44;;;;;;;8.18;2.83;;;1.30;99.90;;;;;;5026562;28;20042;-61
2022/03/07 06:14:15;;;;;;;10.13;3.70;;;1.30;99.90;;;;;;5027505;28;20604;-60
2022/03/07 06:16:43;;;;;;;22.35;4.53;;;1.30;99.90;;;;;;5011649;28;20420;-61
2022/03/07 06:19:11;;;;;;;13.65;3.35;;;1.30;99.90;;;;;;5013859;28;20041;-62
2022/03/07 06:21:39;;;;;;;11.05;2.50;;;1.30;99.90;;;;;;5029585;28;20056;-62
2022/03/07 06:24:11;;;;;;;8.82;3.05;;;1.30;99.90;;;;;;5030802;28;20049;-60
2022/03/07 06:26:38;;;;;;;7.30;2.90;;;1.30;99.90;;;;;;5029457;28;20053;-60
2022/03/07 06:29:07;;;;;;;14.13;4.00;;;1.30;99.90;;;;;;5018914;28;20060;-61
2022/03/07 06:31:34;;;;;;;15.32;2.97;;;1.30;99.90;;;;;;5012391;28;20045;-61
2022/03/07 06:34:03;;;;;;;11.65;3.28;;;1.30;99.90;;;;;;5030007;28;20049;-60
2022/03/07 06:36:30;;;;;;;8.15;2.80;;;1.40;99.90;;;;;;5026914;28;20046;-61
2022/03/07 06:38:58;;;;;;;8.60;2.60;;;1.40;99.90;;;;;;5027528;28;20046;-61
2022/03/07 06:41:26;;;;;;;8.95;3.38;;;1.40;99.90;;;;;;5026817;28;20045;-61
2022/03/07 06:44:00;;;;;;;12.48;3.88;;;1.40;99.90;;;;;;4994520;28;20038;-60
2022/03/07 06:46:28;;;;;;;21.33;3.65;;;1.40;99.90;;;;;;5030986;28;20046;-60
2022/03/07 06:49:02;;;;;;;7.45;3.20;;;1.50;99.90;;;;;;5029708;28;20033;-60
2022/03/07 06:51:30;;;;;;;10.20;2.53;;;1.50;99.90;;;;;;5029698;28;20041;-63
2022/03/07 06:53:58;;;;;;;8.27;2.58;;;1.50;99.90;;;;;;5014951;28;20049;-62
2022/03/07 06:56:26;;;;;;;9.77;3.28;;;1.50;99.90;;;;;;5028737;28;20737;-62
2022/03/07 06:58:57;;;;;;;9.27;2.75;;;1.50;99.90;;;;;;5023258;28;20405;-64
2022/03/07 07:01:30;;;;;;;13.63;2.90;;;1.60;99.90;;;;;;5027193;28;20385;-61
2022/03/07 07:03:58;;;;;;;14.80;3.38;;;1.60;99.90;;;;;;5025246;28;20056;-64
2022/03/07 07:06:34;;;;;;;10.68;3.03;;;1.60;99.90;;;;;;5022407;28;20818;-62
2022/03/07 07:09:02;;;;;;;19.70;3.05;;;1.60;99.90;;;;;;5029559;28;20053;-63
2022/03/07 07:11:30;;;;;;;9.95;2.67;;;1.60;99.90;;;;;;5030220;28;20413;-61
2022/03/07 07:13:57;;;;;;;11.88;2.67;;;1.70;99.90;;;;;;5006382;28;20389;-61
2022/03/07 07:16:25;;;;;;;14.10;3.20;;;1.70;99.90;;;;;;5011444;28;20416;-61
2022/03/07 07:18:53;;;;;;;10.20;2.63;;;1.70;99.90;;;;;;5025748;28;20060;-63
2022/03/07 07:21:24;;;;;;;12.85;2.60;;;1.70;99.90;;;;;;5026225;28;20520;-60
2022/03/07 07:23:54;;;;;;;9.05;3.22;;;1.80;99.90;;;;;;5027574;28;20046;-61
2022/03/07 07:26:22;;;;;;;13.00;3.05;;;1.80;99.90;;;;;;5029653;28;20045;-63
2022/03/07 07:28:51;;;;;;;17.35;2.88;;;1.90;99.90;;;;;;5018492;28;20054;-62
2022/03/07 07:31:19;;;;;;;9.80;3.60;;;1.90;99.90;;;;;;5017437;28;20057;-63
2022/03/07 07:33:47;;;;;;;11.90;3.53;;;1.90;99.90;;;;;;5028726;28;20053;-63
2022/03/07 07:36:15;;;;;;;9.57;2.38;;;2.00;99.90;;;;;;5029013;28;20038;-62
2022/03/07 07:38:44;;;;;;;9.75;2.63;;;2.00;99.90;;;;;;5028277;28;20045;-63
2022/03/07 07:41:12;;;;;;;9.10;2.83;;;2.10;99.90;;;;;;5029301;28;20385;-62
2022/03/07 07:43:51;;;;;;;9.93;2.53;;;2.10;99.90;;;;;;5023349;28;20048;-62
2022/03/07 07:46:26;;;;;;;10.90;2.80;;;2.20;99.90;;;;;;5029092;28;20041;-61
2022/03/07 07:48:54;;;;;;;16.98;3.15;;;2.30;99.90;;;;;;5009420;28;20041;-62
2022/03/07 07:51:22;;;;;;;11.65;1.98;;;2.40;99.90;;;;;;5026305;28;20504;-62
2022/03/07 07:53:50;;;;;;;8.68;1.70;;;2.40;99.90;;;;;;5022592;28;20052;-61
2022/03/07 07:56:22;;;;;;;5.00;1.85;;;2.50;99.90;;;;;;5021836;28;20048;-63
2022/03/07 07:58:53;;;;;;;8.38;1.95;;;2.60;99.90;;;;;;5027838;28;20072;-61
2022/03/07 08:01:21;;;;;;;8.35;1.88;;;2.70;99.90;;;;;;5024129;28;20053;-62
2022/03/07 08:03:50;;;;;;;10.57;2.45;;;2.80;99.90;;;;;;5022412;28;20060;-61
2022/03/07 08:06:21;;;;;;;10.52;2.22;;;2.90;99.90;;;;;;5015828;28;20049;-62
2022/03/07 08:08:49;;;;;;;8.70;2.08;;;3.10;99.90;;;;;;5021367;28;20048;-61
2022/03/07 08:11:17;;;;;;;4.93;2.00;;;3.10;99.90;;;;;;5012913;28;20049;-60
2022/03/07 08:13:48;;;;;;;9.65;2.33;;;3.20;99.90;;;;;;5015655;28;20052;-62
2022/03/07 08:16:18;;;;;;;12.55;2.75;;;3.30;99.90;;;;;;5012620;28;20486;-61
2022/03/07 08:18:46;;;;;;;12.50;3.83;;;3.40;99.90;;;;;;5018837;28;20511;-62
2022/03/07 08:21:14;;;;;;;8.85;2.28;;;3.50;99.90;;;;;;5023400;28;20469;-63
2022/03/07 08:23:42;;;;;;;8.65;2.30;;;3.50;99.90;;;;;;5025856;28;20057;-64
2022/03/07 08:26:10;;;;;;;8.88;2.42;;;3.60;99.90;;;;;;5029125;28;20041;-62
2022/03/07 08:28:37;;;;;;;7.25;2.00;;;3.70;99.90;;;;;;5024804;28;20055;-63
2022/03/07 08:31:05;;;;;;;7.93;1.95;;;3.70;99.90;;;;;;5015829;28;20052;-60
2022/03/07 08:33:33;;;;;;;12.23;2.35;;;3.80;99.90;;;;;;5022330;28;20057;-64
2022/03/07 08:36:00;;;;;;;12.98;2.40;;;3.90;99.90;;;;;;5018089;28;20507;-63
2022/03/07 08:38:28;;;;;;;9.38;2.08;;;3.90;99.90;;;;;;5011269;28;20049;-64
2022/03/07 08:40:56;;;;;;;5.97;2.15;;;4.00;99.90;;;;;;5006281;28;20056;-63
2022/03/07 08:43:24;;;;;;;12.55;3.08;;;4.00;99.90;;;;;;5027784;28;20060;-63
2022/03/07 08:45:52;;;;;;;7.05;2.60;;;4.10;99.90;;;;;;5016593;28;20049;-65
2022/03/07 08:48:24;;;;;;;8.57;2.30;;;4.10;99.90;;;;;;5006207;28;20056;-63
2022/03/07 08:50:53;;;;;;;8.05;2.00;;;4.20;99.90;;;;;;5028141;28;20062;-61
2022/03/07 08:53:21;;;;;;;6.47;2.73;;;4.20;99.90;;;;;;5028560;28;20045;-63
2022/03/07 08:55:48;;;;;;;6.35;2.60;;;4.30;99.90;;;;;;5028145;28;20803;-64
2022/03/07 08:58:36;;;;;;;10.27;2.90;;;4.30;99.90;;;;;;5028570;28;20393;-63
2022/03/07 09:01:04;;;;;;;16.95;4.43;;;4.40;99.90;;;;;;5015148;28;20057;-65
2022/03/07 09:03:32;;;;;;;11.10;2.58;;;4.40;99.90;;;;;;5024478;28;20057;-64
2022/03/07 09:05:59;;;;;;;12.98;3.17;;;4.50;99.90;;;;;;5014975;28;20057;-64
2022/03/07 09:08:27;;;;;;;9.60;2.17;;;4.50;99.90;;;;;;5010475;28;20045;-65
2022/03/07 09:10:55;;;;;;;6.60;1.95;;;4.50;99.90;;;;;;5028145;28;20053;-62
2022/03/07 09:13:22;;;;;;;6.07;1.73;;;4.60;99.90;;;;;;5010408;28;20057;-61
2022/03/07 09:15:50;;;;;;;9.88;2.03;;;4.60;99.90;;;;;;5009975;28;20069;-62
2022/03/07 09:18:20;;;;;;;8.82;2.78;;;4.60;99.90;;;;;;5015715;28;20625;-62
2022/03/07 09:20:48;;;;;;;8.77;2.78;;;4.60;99.90;;;;;;5027557;28;20038;-60
2022/03/07 09:23:16;;;;;;;9.77;2.13;;;4.60;99.90;;;;;;5023129;28;20057;-61
2022/03/07 09:25:43;;;;;;;7.25;3.03;;;4.70;99.90;;;;;;5010843;28;20042;-62
2022/03/07 09:28:11;;;;;;;18.17;5.28;;;4.70;99.90;;;;;;5027861;28;20404;-63
2022/03/07 09:30:39;;;;;;;10.05;3.10;;;4.70;99.90;;;;;;5027738;28;20057;-65
2022/03/07 09:33:07;;;;;;;14.88;3.90;;;4.70;99.90;;;;;;5027267;28;20037;-61
2022/03/07 09:35:35;;;;;;;9.13;2.78;;;4.70;99.90;;;;;;5010139;28;20057;-63
2022/03/07 09:38:02;;;;;;;18.13;4.05;;;4.80;99.90;;;;;;5004347;28;20049;-61
2022/03/07 09:40:30;;;;;;;11.70;3.42;;;4.80;99.90;;;;;;5018706;28;20034;-63
2022/03/07 09:42:58;;;;;;;7.13;2.78;;;4.80;99.90;;;;;;5023462;28;20045;-64
2022/03/07 09:45:26;;;;;;;8.25;3.72;;;4.90;99.90;;;;;;5025944;28;20045;-62
2022/03/07 09:47:56;;;;;;;8.93;3.92;;;4.90;99.90;;;;;;5029071;28;20068;-60
2022/03/07 09:50:24;;;;;;;7.68;3.00;;;5.00;99.90;;;;;;5027720;28;20057;-62
2022/03/07 09:52:54;;;;;;;13.95;3.10;;;5.00;99.90;;;;;;5031739;28;20054;-62
2022/03/07 09:55:22;;;;;;;5.70;2.33;;;5.00;99.90;;;;;;5031882;28;20045;-62
2022/03/07 09:57:50;;;;;;;16.23;3.53;;;5.00;99.90;;;;;;5030695;28;20049;-63
2022/03/07 10:00:19;;;;;;;8.55;3.53;;;5.10;99.90;;;;;;5013354;28;20042;-63
2022/03/07 10:03:02;;;;;;;9.75;2.80;;;5.10;99.90;;;;;;5017938;28;20422;-62
2022/03/07 10:05:34;;;;;;;7.20;2.53;;;5.10;99.90;;;;;;5025749;28;20046;-61
2022/03/07 10:08:05;;;;;;;8.73;2.05;;;5.20;99.90;;;;;;5029111;28;20056;-61
2022/03/07 10:10:37;;;;;;;8.18;2.42;;;5.30;99.90;;;;;;5031411;28;20044;-61
2022/03/07 10:13:11;;;;;;;10.13;1.70;;;5.30;99.90;;;;;;5031100;28;20389;-61
2022/03/07 10:15:40;;;;;;;7.25;2.50;;;5.30;99.90;;;;;;5018993;28;20060;-60
2022/03/07 10:18:28;;;;;;;6.77;1.20;;;5.40;99.90;;;;;;4994025;28;20514;-60
2022/03/07 10:21:04;;;;;;;6.15;1.60;;;5.40;99.90;;;;;;5021123;28;20928;-62
2022/03/07 10:23:32;;;;;;;6.57;1.80;;;5.50;99.90;;;;;;5028463;28;20057;-61
2022/03/07 10:26:08;;;;;;;8.63;2.00;;;5.50;99.90;;;;;;5027726;28;20041;-62
2022/03/07 10:28:42;;;;;;;7.80;1.80;;;5.60;99.90;;;;;;5031275;28;20053;-62
2022/03/07 10:31:17;;;;;;;7.75;1.98;;;5.60;99.90;;;;;;5024747;28;20654;-63
2022/03/07 10:33:46;;;;;;;6.82;1.58;;;5.70;99.90;;;;;;5030725;28;20049;-64
2022/03/07 10:36:14;;;;;;;5.80;1.30;;;5.70;99.90;;;;;;5031028;28;20046;-61
2022/03/07 10:38:43;;;;;;;11.10;1.63;;;5.70;99.90;;;;;;5013384;28;20378;-63
2022/03/07 10:41:11;;;;;;;5.13;1.42;;;5.80;99.90;;;;;;5026684;28;20056;-63
2022/03/07 10:43:46;;;;;;;7.00;1.58;;;5.80;99.90;;;;;;5030645;28;20045;-61
2022/03/07 10:46:25;;;;;;;5.53;1.70;;;5.90;99.90;;;;;;5030714;28;20224;-61
2022/03/07 10:48:54;;;;;;;6.95;1.83;;;5.90;99.90;;;;;;5023736;28;20041;-63
2022/03/07 10:51:21;;;;;;;7.22;1.65;;;5.90;99.90;;;;;;5013782;28;20050;-64
2022/03/07 10:53:49;;;;;;;8.88;2.13;;;6.00;99.90;;;;;;5017182;28;20068;-63
2022/03/07 10:56:17;;;;;;;4.65;1.83;;;5.90;99.90;;;;;;4993611;28;20054;-63
2022/03/07 10:58:53;;;;;;;7.78;1.52;;;5.90;99.90;;;;;;5010974;28;20125;-63
2022/03/07 11:01:34;;;;;;;5.00;1.58;;;5.90;99.90;;;;;;5029699;28;20042;-61
2022/03/07 11:04:02;;;;;;;6.40;1.70;;;5.80;99.90;;;;;;5009116;28;20394;-60
2022/03/07 11:06:29;;;;;;;8.82;1.52;;;5.90;99.90;;;;;;5026948;28;20041;-60
2022/03/07 11:08:57;;;;;;;4.90;1.70;;;5.80;99.90;;;;;;5019061;28;20107;-60
2022/03/07 11:11:25;;;;;;;11.65;2.22;;;5.80;99.90;;;;;;5011741;28;20452;-60
2022/03/07 11:13:55;;;;;;;13.05;2.65;;;5.70;99.90;;;;;;5029809;28;20061;-60
2022/03/07 11:16:27;;;;;;;5.13;1.70;;;5.70;99.90;;;;;;5025794;28;20050;-62
2022/03/07 11:18:55;;;;;;;8.43;1.92;;;5.80;99.90;;;;;;5010948;28;20049;-62
2022/03/07 11:21:30;;;;;;;3.85;2.03;;;5.80;99.90;;;;;;5027975;28;20048;-60
2022/03/07 11:23:58;;;;;;;6.82;1.17;;;5.80;99.90;;;;;;5020468;28;20049;-61
2022/03/07 11:26:26;;;;;;;6.82;1.10;;;5.80;99.90;;;;;;5008086;28;20038;-60
2022/03/07 11:28:57;;;;;;;9.88;1.23;;;5.80;99.90;;;;;;5010627;28;20532;-61
2022/03/07 11:31:27;;;;;;;9.63;1.30;;;5.90;99.90;;;;;;5006206;28;20046;-62
2022/03/07 11:33:56;;;;;;;8.25;1.30;;;5.80;99.90;;;;;;5008178;28;20053;-61
2022/03/07 11:36:25;;;;;;;9.88;1.42;;;5.90;99.90;;;;;;5030272;28;20048;-60
2022/03/07 11:39:00;;;;;;;3.70;0.77;;;5.90;99.90;;;;;;5003547;28;20057;-60
2022/03/07 11:41:36;;;;;;;8.20;1.33;;;5.90;99.90;;;;;;5018969;28;20080;-60
2022/03/07 11:44:09;;;;;;;3.70;0.90;;;6.00;99.90;;;;;;5011697;28;20053;-61
2022/03/07 11:46:39;;;;;;;3.45;0.73;;;6.10;99.90;;;;;;5012566;28;20064;-60
2022/03/07 11:49:09;;;;;;;4.07;0.60;;;6.10;99.90;;;;;;5031580;28;20042;-64
2022/03/07 11:51:41;;;;;;;4.13;0.80;;;6.20;99.90;;;;;;5028183;28;20568;-64
2022/03/07 11:54:21;;;;;;;4.03;0.93;;;6.30;99.90;;;;;;5012680;28;20041;-61
2022/03/07 11:56:56;;;;;;;4.28;0.60;;;6.40;99.90;;;;;;5026823;28;20049;-60
2022/03/07 11:59:30;;;;;;;4.80;1.47;;;6.50;99.90;;;;;;4995734;28;20045;-61
2022/03/07 12:01:58;;;;;;;6.03;1.10;;;6.60;99.90;;;;;;5029113;28;20297;-60
2022/03/07 12:04:41;;;;;;;5.53;0.90;;;6.60;99.90;;;;;;5028779;28;20050;-61
2022/03/07 12:07:10;;;;;;;5.35;1.20;;;6.60;99.90;;;;;;5029443;28;20397;-63
2022/03/07 12:09:39;;;;;;;7.40;0.90;;;6.60;99.90;;;;;;5027746;28;20068;-63
2022/03/07 12:12:20;;;;;;;3.73;1.07;;;6.50;99.90;;;;;;5028473;28;20049;-63
2022/03/07 12:14:48;;;;;;;4.72;1.02;;;6.60;99.90;;;;;;5027079;28;20041;-61
2022/03/07 12:17:23;;;;;;;5.53;1.15;;;6.60;99.90;;;;;;5028732;28;20049;-61
2022/03/07 12:19:56;;;;;;;1.23;0.70;;;6.60;99.90;;;;;;5028655;28;20049;-62
2022/03/07 12:22:26;;;;;;;3.72;0.90;;;6.70;99.90;;;;;;5011198;28;20053;-63
2022/03/07 12:24:59;;;;;;;7.38;1.15;;;6.80;99.90;;;;;;5022648;28;20056;-60
2022/03/07 12:27:27;;;;;;;3.75;1.00;;;6.80;99.90;;;;;;5028576;28;20082;-63
2022/03/07 12:29:55;;;;;;;4.47;0.80;;;6.80;99.90;;;;;;5025114;28;20056;-62
2022/03/07 12:32:22;;;;;;;3.28;0.88;;;6.80;99.90;;;;;;5028237;28;20049;-63
2022/03/07 12:34:50;;;;;;;6.13;1.52;;;6.80;99.90;;;;;;5028037;28;20053;-61
2022/03/07 12:37:20;;;;;;;6.78;0.98;;;6.80;99.90;;;;;;5021555;28;20052;-61
2022/03/07 12:40:00;;;;;;;7.43;1.02;;;6.80;99.90;;;;;;5027844;28;20045;-62
2022/03/07 12:42:32;;;;;;;4.95;1.10;;;6.90;99.90;;;;;;5028370;28;20057;-61
2022/03/07 12:45:00;;;;;;;5.20;1.05;;;6.90;99.90;;;;;;5010089;28;20079;-60
2022/03/07 12:47:31;;;;;;;6.60;1.23;;;7.00;99.90;;;;;;5008289;28;20057;-61
2022/03/07 12:50:00;;;;;;;7.28;1.38;;;7.20;99.90;;;;;;5027703;28;20050;-63
2022/03/07 12:52:30;;;;;;;5.93;1.15;;;7.70;99.90;;;;;;5010682;28;20045;-59
2022/03/07 12:54:59;;;;;;;5.95;0.95;;;8.00;99.90;;;;;;5027402;28;20072;-60
2022/03/07 12:57:28;;;;;;;6.32;0.90;;;8.10;99.90;;;;;;5027728;28;20041;-59
2022/03/07 12:59:58;;;;;;;5.20;0.70;;;7.90;99.90;;;;;;5014880;28;20500;-61
2022/03/07 13:02:41;;;;;;;4.85;0.82;;;7.80;99.90;;;;;;5013819;28;20056;-59